createdAt,value
2017-09-04T00:00:16.465Z,83.00
2017-09-04T00:02:44.730Z,83.00
2017-09-04T00:05:13.014Z,83.40
2017-09-04T00:07:41.295Z,83.40
2017-09-04T00:10:09.520Z,83.20
2017-09-04T00:12:37.797Z,83.20
2017-09-04T00:15:06.049Z,83.30
2017-09-04T00:17:34.302Z,83.30
2017-09-04T00:20:02.579Z,83.10
2017-09-04T00:22:30.813Z,83.20
2017-09-04T00:24:59.206Z,83.40
2017-09-04T00:27:27.462Z,83.10
2017-09-04T00:29:55.683Z,83.10
2017-09-04T00:32:23.945Z,82.70
2017-09-04T00:34:52.183Z,82.60
2017-09-04T00:37:21.015Z,82.90
2017-09-04T00:39:49.252Z,82.30
2017-09-04T00:42:17.520Z,82.00
2017-09-04T00:44:45.756Z,82.40
2017-09-04T00:47:14.009Z,82.90
2017-09-04T00:49:42.259Z,82.70
2017-09-04T00:52:10.535Z,82.70
2017-09-04T00:54:38.790Z,82.90
2017-09-04T00:57:07.038Z,83.00
2017-09-04T00:59:35.303Z,82.40
2017-09-04T01:02:03.534Z,82.70
2017-09-04T01:04:31.806Z,82.40
2017-09-04T01:07:00.091Z,82.50
2017-09-04T01:09:28.353Z,82.50
2017-09-04T01:11:56.590Z,82.70
2017-09-04T01:14:24.860Z,82.80
2017-09-04T01:16:53.103Z,82.50
2017-09-04T01:19:21.361Z,82.80
2017-09-04T01:21:49.645Z,82.50
2017-09-04T01:24:17.898Z,82.50
2017-09-04T01:26:46.178Z,82.50
2017-09-04T01:29:14.470Z,82.40
2017-09-04T01:31:42.715Z,82.90
2017-09-04T01:34:10.968Z,82.70
2017-09-04T01:36:39.224Z,82.60
2017-09-04T01:39:07.475Z,82.80
2017-09-04T01:41:35.717Z,82.40
2017-09-04T01:44:03.961Z,83.30
2017-09-04T01:46:32.214Z,82.70
2017-09-04T01:49:00.467Z,82.70
2017-09-04T01:51:28.723Z,82.00
2017-09-04T01:53:56.957Z,82.80
2017-09-04T01:56:25.221Z,82.80
2017-09-04T01:58:53.471Z,83.10
2017-09-04T02:01:21.702Z,82.70
2017-09-04T02:03:49.995Z,82.90
2017-09-04T02:06:18.263Z,82.90
2017-09-04T02:08:46.538Z,82.50
2017-09-04T02:11:14.763Z,82.70
2017-09-04T02:13:43.034Z,82.20
2017-09-04T02:16:11.279Z,82.50
2017-09-04T02:18:39.511Z,82.60
2017-09-04T02:21:07.764Z,82.90
2017-09-04T02:23:35.998Z,82.40
2017-09-04T02:26:04.234Z,82.40
2017-09-04T02:28:32.518Z,82.00
2017-09-04T02:31:00.795Z,81.80
2017-09-04T02:33:29.014Z,82.00
2017-09-04T02:35:57.291Z,81.60
2017-09-04T02:38:25.548Z,81.50
2017-09-04T02:40:53.793Z,81.30
2017-09-04T02:43:22.133Z,81.30
2017-09-04T02:45:50.358Z,81.40
2017-09-04T02:48:18.631Z,81.60
2017-09-04T02:50:46.853Z,81.30
2017-09-04T02:53:15.154Z,81.40
2017-09-04T02:55:43.410Z,81.50
2017-09-04T02:58:11.635Z,81.40
2017-09-04T03:00:39.906Z,81.70
2017-09-04T03:03:08.166Z,82.00
2017-09-04T03:05:36.411Z,81.60
2017-09-04T03:08:04.646Z,81.50
2017-09-04T03:10:33.672Z,81.70
2017-09-04T03:13:01.955Z,81.30
2017-09-04T03:15:30.185Z,81.50
2017-09-04T03:17:58.453Z,81.60
2017-09-04T03:20:26.694Z,82.10
2017-09-04T03:22:54.935Z,82.30
2017-09-04T03:25:23.171Z,82.30
2017-09-04T03:27:51.438Z,82.70
2017-09-04T03:30:19.726Z,82.40
2017-09-04T03:32:48.009Z,82.50
2017-09-04T03:35:16.266Z,82.70
2017-09-04T03:37:44.535Z,82.80
2017-09-04T03:40:12.773Z,82.70
2017-09-04T03:42:41.023Z,83.50
2017-09-04T03:45:09.343Z,83.10
2017-09-04T03:47:37.574Z,83.20
2017-09-04T03:50:05.864Z,82.80
2017-09-04T03:52:34.129Z,82.90
2017-09-04T03:55:02.419Z,83.00
2017-09-04T03:57:30.686Z,83.40
2017-09-04T03:59:58.970Z,83.40
2017-09-04T04:02:27.244Z,82.80
2017-09-04T04:04:55.506Z,83.00
2017-09-04T04:07:23.786Z,82.90
2017-09-04T04:09:52.145Z,82.80
2017-09-04T04:12:20.467Z,82.90
2017-09-04T04:14:48.698Z,82.90
2017-09-04T04:17:17.026Z,83.00
2017-09-04T04:19:45.275Z,82.90
2017-09-04T04:22:13.584Z,83.80
2017-09-04T04:24:41.932Z,83.80
2017-09-04T04:27:10.201Z,84.00
2017-09-04T04:29:38.514Z,84.00
2017-09-04T04:32:06.764Z,83.80
2017-09-04T04:34:35.043Z,83.80
2017-09-04T04:37:03.350Z,83.80
2017-09-04T04:39:31.587Z,83.80
2017-09-04T04:41:59.865Z,83.80
2017-09-04T04:44:28.093Z,84.00
2017-09-04T04:46:56.374Z,84.10
2017-09-04T04:49:24.653Z,84.00
2017-09-04T04:51:52.908Z,83.80
2017-09-04T04:54:21.146Z,83.80
2017-09-04T04:56:49.405Z,83.80
2017-09-04T04:59:17.646Z,83.90
2017-09-04T05:01:45.887Z,84.00
2017-09-04T05:04:14.145Z,84.00
2017-09-04T05:06:42.697Z,83.60
2017-09-04T05:09:10.915Z,83.70
2017-09-04T05:11:39.177Z,84.20
2017-09-04T05:14:07.418Z,83.70
2017-09-04T05:16:35.673Z,83.60
2017-09-04T05:19:03.917Z,83.50
2017-09-04T05:21:32.166Z,82.40
2017-09-04T05:24:00.434Z,82.10
2017-09-04T05:26:28.674Z,82.20
2017-09-04T05:28:56.944Z,82.00
2017-09-04T05:31:25.249Z,81.60
2017-09-04T05:33:53.584Z,81.40
2017-09-04T05:36:21.839Z,81.20
2017-09-04T05:38:50.103Z,81.40
2017-09-04T05:41:18.342Z,81.00
2017-09-04T05:43:46.613Z,80.70
2017-09-04T05:46:14.873Z,80.50
2017-09-04T05:48:43.135Z,80.70
2017-09-04T05:51:11.361Z,80.30
2017-09-04T05:53:39.700Z,80.50
2017-09-04T05:56:07.918Z,79.90
2017-09-04T05:58:36.150Z,80.60
2017-09-04T06:01:04.402Z,81.30
2017-09-04T06:03:32.799Z,80.90
2017-09-04T06:06:01.014Z,80.50
2017-09-04T06:08:29.279Z,80.50
2017-09-04T06:10:57.559Z,80.70
2017-09-04T06:13:25.837Z,80.50
2017-09-04T06:15:54.094Z,80.10
2017-09-04T06:18:22.363Z,80.40
2017-09-04T06:20:50.585Z,80.20
2017-09-04T06:23:18.890Z,80.10
2017-09-04T06:25:47.127Z,80.10
2017-09-04T06:28:15.384Z,79.90
2017-09-04T06:30:43.790Z,79.30
2017-09-04T06:33:12.054Z,79.40
2017-09-04T06:35:40.920Z,79.50
2017-09-04T06:38:09.167Z,79.00
2017-09-04T06:40:37.404Z,79.00
2017-09-04T06:43:06.451Z,78.10
2017-09-04T06:45:34.683Z,78.10
2017-09-04T06:48:02.979Z,77.90
2017-09-04T06:50:31.210Z,77.20
2017-09-04T06:52:59.473Z,77.20
2017-09-04T06:55:28.363Z,76.30
2017-09-04T06:57:56.613Z,75.60
2017-09-04T07:00:24.890Z,75.70
2017-09-04T07:02:53.200Z,75.70
2017-09-04T07:05:21.422Z,75.20
2017-09-04T07:07:49.663Z,75.40
2017-09-04T07:10:17.931Z,75.60
2017-09-04T07:12:46.226Z,75.80
2017-09-04T07:15:14.582Z,75.40
2017-09-04T07:17:42.791Z,75.50
2017-09-04T07:20:11.043Z,75.50
2017-09-04T07:22:39.295Z,75.80
2017-09-04T07:25:07.546Z,75.40
2017-09-04T07:27:35.813Z,75.80
2017-09-04T07:30:04.148Z,75.60
2017-09-04T07:32:32.414Z,75.10
2017-09-04T07:35:00.643Z,75.40
2017-09-04T07:37:28.902Z,75.30
2017-09-04T07:39:57.118Z,75.10
2017-09-04T07:42:35.312Z,75.00
2017-09-04T07:45:03.565Z,74.60
2017-09-04T07:47:31.858Z,74.60
2017-09-04T07:50:00.159Z,74.30
2017-09-04T07:52:28.413Z,74.30
2017-09-04T07:54:56.696Z,74.00
2017-09-04T07:57:24.919Z,73.70
2017-09-04T07:59:53.171Z,73.50
2017-09-04T08:02:21.416Z,73.20
2017-09-04T08:04:49.661Z,73.50
2017-09-04T08:07:17.902Z,73.90
2017-09-04T08:09:46.163Z,73.10
2017-09-04T08:12:14.887Z,72.90
2017-09-04T08:14:43.191Z,72.70
2017-09-04T08:17:11.450Z,73.00
2017-09-04T08:19:39.725Z,71.90
2017-09-04T08:22:07.993Z,71.20
2017-09-04T08:24:36.278Z,71.70
2017-09-04T08:27:04.514Z,72.20
2017-09-04T08:29:32.788Z,71.80
2017-09-04T08:32:01.026Z,71.20
2017-09-04T08:34:29.261Z,71.00
2017-09-04T08:36:57.540Z,70.10
2017-09-04T08:39:25.754Z,69.60
2017-09-04T08:41:54.012Z,69.10
2017-09-04T08:44:22.310Z,69.40
2017-09-04T08:46:50.527Z,68.80
2017-09-04T08:49:18.786Z,68.30
2017-09-04T08:51:47.031Z,68.30
2017-09-04T08:54:15.342Z,67.80
2017-09-04T08:56:43.635Z,67.40
2017-09-04T08:59:11.870Z,66.50
2017-09-04T09:01:40.125Z,66.40
2017-09-04T09:04:08.415Z,65.70
2017-09-04T09:06:36.659Z,64.80
2017-09-04T09:09:04.985Z,64.50
2017-09-04T09:11:33.221Z,63.90
2017-09-04T09:14:01.495Z,63.60
2017-09-04T09:16:29.774Z,63.50
2017-09-04T09:18:58.026Z,64.70
2017-09-04T09:21:26.317Z,65.20
2017-09-04T09:23:54.580Z,63.80
2017-09-04T09:26:22.865Z,60.50
2017-09-04T09:28:51.262Z,58.70
2017-09-04T09:31:19.560Z,58.90
2017-09-04T09:33:48.002Z,59.10
2017-09-04T09:36:16.257Z,59.00
2017-09-04T09:38:45.321Z,59.60
2017-09-04T09:41:15.112Z,57.50
2017-09-04T09:43:43.388Z,56.40
2017-09-04T09:46:11.800Z,57.80
2017-09-04T09:48:40.204Z,57.90
2017-09-04T09:51:08.539Z,57.20
2017-09-04T09:53:37.669Z,57.30
2017-09-04T09:56:05.927Z,57.30
2017-09-04T09:58:35.497Z,57.10
2017-09-04T10:01:03.722Z,57.20
2017-09-04T10:03:32.041Z,56.30
2017-09-04T10:06:00.282Z,55.30
2017-09-04T10:08:28.551Z,55.30
2017-09-04T10:10:56.784Z,54.70
2017-09-04T10:13:25.131Z,53.60
2017-09-04T10:15:53.427Z,53.10
2017-09-04T10:18:21.655Z,54.10
2017-09-04T10:20:49.947Z,53.80
2017-09-04T10:23:18.157Z,54.60
2017-09-04T10:25:46.446Z,54.40
2017-09-04T10:28:14.684Z,54.00
2017-09-04T10:30:42.905Z,54.40
2017-09-04T10:33:11.161Z,51.80
2017-09-04T10:35:39.406Z,51.90
2017-09-04T10:38:07.694Z,52.00
2017-09-04T10:40:35.966Z,50.80
2017-09-04T10:43:04.192Z,51.20
2017-09-04T10:45:32.474Z,51.20
2017-09-04T10:48:00.746Z,51.10
2017-09-04T10:50:29.005Z,51.00
2017-09-04T10:52:57.257Z,50.40
2017-09-04T10:55:25.525Z,51.60
2017-09-04T10:57:53.803Z,52.10
2017-09-04T11:00:22.042Z,52.10
2017-09-04T11:02:50.320Z,51.70
2017-09-04T11:05:18.546Z,53.20
2017-09-04T11:07:46.802Z,51.40
2017-09-04T11:10:15.183Z,51.40
2017-09-04T11:12:43.470Z,52.20
2017-09-04T11:15:11.743Z,51.10
2017-09-04T11:17:39.974Z,48.40
2017-09-04T11:20:08.227Z,48.70
2017-09-04T11:22:36.483Z,50.20
2017-09-04T11:25:04.736Z,49.30
2017-09-04T11:27:33.004Z,47.90
2017-09-04T11:30:01.270Z,46.80
2017-09-04T11:32:30.530Z,47.40
2017-09-04T11:34:58.770Z,47.40
2017-09-04T11:37:27.046Z,44.60
2017-09-04T11:39:55.307Z,46.30
2017-09-04T11:42:23.557Z,46.60
2017-09-04T11:44:51.810Z,47.40
2017-09-04T11:47:20.082Z,48.90
2017-09-04T11:49:48.362Z,48.30
2017-09-04T11:52:16.626Z,49.30
2017-09-04T11:54:44.862Z,50.00
2017-09-04T11:57:13.119Z,48.50
2017-09-04T11:59:41.397Z,51.10
2017-09-04T12:02:09.663Z,50.20
2017-09-04T12:04:37.886Z,50.90
2017-09-04T12:07:06.204Z,49.50
2017-09-04T12:09:34.464Z,50.10
2017-09-04T12:12:03.003Z,50.80
2017-09-04T12:14:31.252Z,49.90
2017-09-04T12:16:59.550Z,49.40
2017-09-04T12:19:27.835Z,46.60
2017-09-04T12:21:56.139Z,46.30
2017-09-04T12:24:24.382Z,44.80
2017-09-04T12:26:52.909Z,44.30
2017-09-04T12:29:21.220Z,44.70
2017-09-04T12:31:49.483Z,44.50
2017-09-04T12:34:17.829Z,43.00
2017-09-04T12:36:46.052Z,41.90
2017-09-04T12:39:14.323Z,40.90
2017-09-04T12:41:42.716Z,40.10
2017-09-04T12:44:10.985Z,41.40
2017-09-04T12:46:39.215Z,40.40
2017-09-04T12:49:07.456Z,41.60
2017-09-04T12:51:35.725Z,42.60
2017-09-04T12:54:03.969Z,42.50
2017-09-04T12:56:32.284Z,42.10
2017-09-04T12:59:00.535Z,42.70
2017-09-04T13:01:28.873Z,41.90
2017-09-04T13:03:57.095Z,42.60
2017-09-04T13:06:25.373Z,43.30
2017-09-04T13:08:53.662Z,44.10
2017-09-04T13:11:27.943Z,42.10
2017-09-04T13:14:01.924Z,43.00
2017-09-04T13:16:35.832Z,41.80
2017-09-04T13:19:09.863Z,43.70
2017-09-04T13:21:43.684Z,43.40
2017-09-04T13:24:17.567Z,42.10
2017-09-04T13:26:51.438Z,42.00
2017-09-04T13:29:25.498Z,43.00
2017-09-04T13:35:03.601Z,40.60
2017-09-04T13:37:37.611Z,39.70
2017-09-04T13:40:25.793Z,40.20
2017-09-04T13:46:06.659Z,40.70
2017-09-04T13:48:40.656Z,41.20
2017-09-04T13:51:24.769Z,40.30
2017-09-04T13:53:53.044Z,41.40
2017-09-04T13:56:28.794Z,41.20
2017-09-04T14:02:20.665Z,41.50
2017-09-04T14:04:54.459Z,41.30
2017-09-04T14:07:28.477Z,41.50
2017-09-04T14:09:58.289Z,40.50
2017-09-04T14:12:43.404Z,38.00
2017-09-04T14:18:19.576Z,42.60
2017-09-04T14:20:47.894Z,43.60
2017-09-04T14:23:16.145Z,43.00
2017-09-04T14:25:44.394Z,42.70
2017-09-04T14:28:12.704Z,42.00
2017-09-04T14:30:40.959Z,41.00
2017-09-04T14:33:09.211Z,41.00
2017-09-04T14:35:37.520Z,42.30
2017-09-04T14:38:05.829Z,42.90
2017-09-04T14:44:02.902Z,42.60
2017-09-04T14:46:36.863Z,41.90
2017-09-04T14:49:05.166Z,41.40
2017-09-04T14:51:33.438Z,41.70
2017-09-04T14:54:01.730Z,42.70
2017-09-04T14:56:29.982Z,43.30
2017-09-04T14:58:58.211Z,44.20
2017-09-04T15:01:26.485Z,43.10
2017-09-04T15:03:54.784Z,43.00
2017-09-04T15:06:23.055Z,40.90
2017-09-04T15:08:51.927Z,41.90
2017-09-04T15:11:20.203Z,44.20
2017-09-04T15:13:48.488Z,43.60
2017-09-04T15:16:16.713Z,42.50
2017-09-04T15:18:45.005Z,41.80
2017-09-04T15:21:13.270Z,42.70
2017-09-04T15:23:41.542Z,42.70
2017-09-04T15:26:10.608Z,42.50
2017-09-04T15:28:38.961Z,42.90
2017-09-04T15:31:07.341Z,44.00
2017-09-04T15:33:35.603Z,43.10
2017-09-04T15:36:03.932Z,43.80
2017-09-04T15:38:32.183Z,44.80
2017-09-04T15:41:00.529Z,44.90
2017-09-04T15:43:28.803Z,44.50
2017-09-04T15:45:57.060Z,44.10
2017-09-04T15:48:25.316Z,44.90
2017-09-04T15:50:53.587Z,43.80
2017-09-04T15:53:21.886Z,44.40
2017-09-04T15:55:50.127Z,45.70
2017-09-04T15:58:18.415Z,46.80
2017-09-04T16:00:46.706Z,46.70
2017-09-04T16:03:14.975Z,46.00
2017-09-04T16:05:43.883Z,45.90
2017-09-04T16:08:12.161Z,45.40
2017-09-04T16:10:40.473Z,44.90
2017-09-04T16:13:13.351Z,44.70
2017-09-04T16:15:48.212Z,45.50
2017-09-04T16:18:32.227Z,45.20
2017-09-04T16:21:02.139Z,44.80
2017-09-04T16:23:33.973Z,47.00
2017-09-04T16:26:13.079Z,45.70
2017-09-04T16:31:57.047Z,45.10
2017-09-04T16:34:40.166Z,45.20
2017-09-04T16:37:23.305Z,45.20
2017-09-04T16:39:51.587Z,44.80
2017-09-04T16:42:22.229Z,43.60
2017-09-04T16:45:06.295Z,43.60
2017-09-04T16:47:38.473Z,44.40
2017-09-04T16:50:11.629Z,44.60
2017-09-04T16:52:42.440Z,45.30
2017-09-04T16:55:11.063Z,47.10
2017-09-04T16:57:39.341Z,47.50
2017-09-04T17:00:07.643Z,49.30
2017-09-04T17:02:35.965Z,49.90
2017-09-04T17:05:04.182Z,50.60
2017-09-04T17:07:32.505Z,49.50
2017-09-04T17:10:00.765Z,49.60
2017-09-04T17:12:30.913Z,50.50
2017-09-04T17:15:14.990Z,50.90
2017-09-04T17:17:47.927Z,50.60
2017-09-04T17:20:18.646Z,51.40
2017-09-04T17:22:49.577Z,51.40
2017-09-04T17:25:20.558Z,54.20
2017-09-04T17:27:48.843Z,56.30
2017-09-04T17:30:17.071Z,57.20
2017-09-04T17:32:45.296Z,58.20
2017-09-04T17:35:13.583Z,58.80
2017-09-04T17:37:41.869Z,58.50
2017-09-04T17:40:10.133Z,57.80
2017-09-04T17:42:39.155Z,59.70
2017-09-04T17:45:07.446Z,59.00
2017-09-04T17:47:35.720Z,60.20
2017-09-04T17:50:03.980Z,59.90
2017-09-04T17:52:33.036Z,62.80
2017-09-04T17:55:01.290Z,62.70
2017-09-04T17:57:29.911Z,63.30
2017-09-04T17:59:58.149Z,63.10
2017-09-04T18:02:26.463Z,62.50
2017-09-04T18:04:54.733Z,64.50
2017-09-04T18:07:23.000Z,64.70
2017-09-04T18:09:51.241Z,66.60
2017-09-04T18:12:19.514Z,67.20
2017-09-04T18:14:47.819Z,67.80
2017-09-04T18:17:16.098Z,68.50
2017-09-04T18:19:44.417Z,69.00
2017-09-04T18:22:12.739Z,69.30
2017-09-04T18:24:41.025Z,70.40
2017-09-04T18:27:09.294Z,71.20
2017-09-04T18:29:37.598Z,71.60
2017-09-04T18:32:05.862Z,71.90
2017-09-04T18:34:34.134Z,72.60
2017-09-04T18:37:02.445Z,73.00
2017-09-04T18:39:30.724Z,73.90
2017-09-04T18:41:58.976Z,73.90
2017-09-04T18:44:27.299Z,73.90
2017-09-04T18:46:55.609Z,75.00
2017-09-04T18:49:23.859Z,74.40
2017-09-04T18:51:52.175Z,75.00
2017-09-04T18:54:20.457Z,74.30
2017-09-04T18:56:48.706Z,74.50
2017-09-04T18:59:17.023Z,74.30
2017-09-04T19:01:45.319Z,74.80
2017-09-04T19:04:13.638Z,74.90
2017-09-04T19:06:41.906Z,75.30
2017-09-04T19:09:10.180Z,75.70
2017-09-04T19:11:38.485Z,77.30
2017-09-04T19:14:06.824Z,77.10
2017-09-04T19:16:35.089Z,77.80
2017-09-04T19:19:03.368Z,78.20
2017-09-04T19:21:31.647Z,78.60
2017-09-04T19:23:59.911Z,78.20
2017-09-04T19:26:28.269Z,78.50
2017-09-04T19:28:56.556Z,78.20
2017-09-04T19:31:24.836Z,77.80
2017-09-04T19:33:53.138Z,77.10
2017-09-04T19:36:21.420Z,77.80
2017-09-04T19:38:49.725Z,78.70
2017-09-04T19:41:18.075Z,78.50
2017-09-04T19:43:46.308Z,78.00
2017-09-04T19:46:14.585Z,77.60
2017-09-04T19:48:42.860Z,78.30
2017-09-04T19:51:11.141Z,78.70
2017-09-04T19:53:39.453Z,78.50
2017-09-04T19:56:07.722Z,79.00
2017-09-04T19:58:36.047Z,79.20
2017-09-04T20:01:04.345Z,79.50
2017-09-04T20:03:32.712Z,79.30
2017-09-04T20:06:00.975Z,79.40
2017-09-04T20:08:29.276Z,80.00
2017-09-04T20:10:57.615Z,80.10
2017-09-04T20:13:25.884Z,80.00
2017-09-04T20:15:54.163Z,81.60
2017-09-04T20:18:22.462Z,81.00
2017-09-04T20:20:50.738Z,80.50
2017-09-04T20:23:19.031Z,80.90
2017-09-04T20:25:47.311Z,81.60
2017-09-04T20:28:15.554Z,81.20
2017-09-04T20:30:43.838Z,81.20
2017-09-04T20:33:12.219Z,81.30
2017-09-04T20:35:40.546Z,81.30
2017-09-04T20:38:08.789Z,81.60
2017-09-04T20:40:37.505Z,81.80
2017-09-04T20:43:05.794Z,82.00
2017-09-04T20:45:34.161Z,82.30
2017-09-04T20:48:02.418Z,82.70
2017-09-04T20:50:30.680Z,83.00
2017-09-04T20:52:58.954Z,82.90
2017-09-04T20:55:27.204Z,82.70
2017-09-04T20:57:55.514Z,82.90
2017-09-04T21:00:23.803Z,82.90
2017-09-04T21:02:52.094Z,83.20
2017-09-04T21:05:20.370Z,83.10
2017-09-04T21:07:48.644Z,83.40
2017-09-04T21:10:16.922Z,83.60
2017-09-04T21:12:45.985Z,83.80
2017-09-04T21:15:14.218Z,83.90
2017-09-04T21:17:42.498Z,84.10
2017-09-04T21:20:10.738Z,84.10
2017-09-04T21:22:39.018Z,84.50
2017-09-04T21:25:07.303Z,84.20
2017-09-04T21:27:35.539Z,84.20
2017-09-04T21:30:03.853Z,83.90
2017-09-04T21:32:32.137Z,84.00
2017-09-04T21:35:00.433Z,83.90
2017-09-04T21:37:28.718Z,83.70
2017-09-04T21:39:57.026Z,83.40
2017-09-04T21:42:25.314Z,83.20
2017-09-04T21:44:53.562Z,83.50
2017-09-04T21:47:21.816Z,84.00
2017-09-04T21:49:50.054Z,84.30
2017-09-04T21:52:18.340Z,84.50
2017-09-04T21:54:46.593Z,85.00
2017-09-04T21:57:14.844Z,84.90
2017-09-04T21:59:43.098Z,85.40
2017-09-04T22:02:11.339Z,85.30
2017-09-04T22:04:39.602Z,85.20
2017-09-04T22:07:07.883Z,84.90
2017-09-04T22:09:36.129Z,84.60
2017-09-04T22:12:04.428Z,84.80
2017-09-04T22:14:32.703Z,85.00
2017-09-04T22:17:01.080Z,84.70
2017-09-04T22:19:29.300Z,85.40
2017-09-04T22:21:57.577Z,85.10
2017-09-04T22:24:25.825Z,84.70
2017-09-04T22:26:54.094Z,84.60
2017-09-04T22:29:22.351Z,84.10
2017-09-04T22:31:50.622Z,84.00
2017-09-04T22:34:18.903Z,83.70
2017-09-04T22:36:47.150Z,83.70
2017-09-04T22:39:15.406Z,84.00
2017-09-04T22:41:43.672Z,83.90
2017-09-04T22:44:11.909Z,83.80
2017-09-04T22:46:40.175Z,83.30
2017-09-04T22:49:08.433Z,83.40
2017-09-04T22:51:36.703Z,83.50
2017-09-04T22:54:04.942Z,84.20
2017-09-04T22:56:33.225Z,83.60
2017-09-04T22:59:02.411Z,83.30
2017-09-04T23:01:30.815Z,83.30
2017-09-04T23:03:59.101Z,83.30
2017-09-04T23:06:27.941Z,83.50
2017-09-04T23:08:56.195Z,83.80
2017-09-04T23:11:24.426Z,83.70
2017-09-04T23:13:52.685Z,83.60
2017-09-04T23:16:20.951Z,83.50
2017-09-04T23:18:49.212Z,84.00
2017-09-04T23:21:17.494Z,82.90
2017-09-04T23:23:45.776Z,83.30
2017-09-04T23:26:14.004Z,83.20
2017-09-04T23:28:42.318Z,82.90
2017-09-04T23:31:10.557Z,82.70
2017-09-04T23:33:38.809Z,83.50
2017-09-04T23:36:07.050Z,83.30
2017-09-04T23:38:35.298Z,83.80
2017-09-04T23:41:03.530Z,83.30
2017-09-04T23:43:31.809Z,83.20
2017-09-04T23:46:00.059Z,82.90
2017-09-04T23:48:28.346Z,83.20
2017-09-04T23:50:56.594Z,83.20
2017-09-04T23:53:24.834Z,82.00
2017-09-04T23:55:53.118Z,81.60
2017-09-04T23:58:21.350Z,81.40
